Time;durP1;ratioP1;P1;durP2;ratioP2;P2;SDS_P1;SDS_P2;PMS_P1;PMS_P2;Temp;Humidity;BMP_temperature;BMP_pressure;BME280_temperature;BME280_humidity;BME280_pressure;Samples;Min_cycle;Max_cycle;Signal;HPM_P1;HPM_P2
2022/02/08 00:09:07;;;;;;;5.12;0.77;;;5.90;99.90;;;;;;6730352;88;20231;-74
2022/02/08 00:19:08;;;;;;;5.93;1.42;;;5.90;99.90;;;;;;6728209;88;20627;-74
2022/02/08 00:29:08;;;;;;;7.65;1.10;;;6.10;99.90;;;;;;6734176;88;20211;-74
2022/02/08 00:39:09;;;;;;;10.00;1.00;;;6.20;99.90;;;;;;6731792;88;20209;-74
2022/02/08 00:49:11;;;;;;;4.97;0.82;;;6.40;99.90;;;;;;6731530;88;20242;-74
2022/02/08 00:59:12;;;;;;;7.25;1.20;;;6.50;99.90;;;;;;6733306;88;20209;-74
2022/02/08 01:09:17;;;;;;;5.37;1.08;;;6.60;99.90;;;;;;6735210;88;20665;-74
2022/02/08 01:19:20;;;;;;;5.12;0.85;;;6.50;99.90;;;;;;6729956;88;20226;-74
2022/02/08 01:29:24;;;;;;;7.22;1.23;;;6.60;99.90;;;;;;6726829;88;20166;-74
2022/02/08 01:39:30;;;;;;;4.40;0.80;;;6.60;99.90;;;;;;6729391;88;20198;-74
2022/02/08 01:49:35;;;;;;;;;;;6.50;99.90;;;;;;6729341;88;20226;-74
2022/02/08 01:59:36;;;;;;;5.25;0.80;;;6.60;99.90;;;;;;6735160;88;20539;-74
2022/02/08 02:09:38;;;;;;;4.55;0.90;;;6.40;99.90;;;;;;6733394;88;20280;-75
2022/02/08 02:19:39;;;;;;;7.53;1.10;;;6.10;99.90;;;;;;6730066;88;20319;-73
2022/02/08 02:29:40;;;;;;;6.60;1.12;;;5.60;99.90;;;;;;6731396;88;20730;-72
2022/02/08 02:39:40;;;;;;;5.57;1.25;;;5.40;99.90;;;;;;6733865;88;20298;-72
2022/02/08 02:49:41;;;;;;;6.85;1.17;;;5.30;99.90;;;;;;6739872;88;20191;-72
2022/02/08 02:59:44;;;;;;;7.53;0.98;;;5.20;99.90;;;;;;6731345;88;20188;-72
2022/02/08 03:20:05;;;;;;;10.15;1.20;;;5.40;99.90;;;;;;6730290;88;20201;-75
2022/02/08 03:30:06;;;;;;;5.12;1.10;;;5.40;99.90;;;;;;6730471;88;20237;-75
2022/02/08 03:40:14;;;;;;;4.25;1.12;;;5.50;99.90;;;;;;6737574;88;20222;-72
2022/02/08 03:50:14;;;;;;;5.55;1.00;;;5.40;99.90;;;;;;6735239;88;20172;-75
2022/02/08 04:00:17;;;;;;;7.30;1.27;;;5.50;99.90;;;;;;6730616;88;20287;-74
2022/02/08 04:10:23;;;;;;;9.70;1.40;;;5.60;99.90;;;;;;6732135;88;20177;-74
2022/02/08 04:51:33;;;;;;;5.93;1.50;;;5.50;99.90;;;;;;6717733;88;20218;-75
2022/02/08 05:53:29;;;;;;;6.57;1.30;;;5.90;99.90;;;;;;6736105;88;20189;-73
2022/02/08 06:03:31;;;;;;;3.25;0.90;;;6.20;99.90;;;;;;6731926;88;20616;-72
2022/02/08 06:13:31;;;;;;;5.43;1.20;;;6.30;99.90;;;;;;6732708;88;20169;-73
2022/02/08 06:23:32;;;;;;;2.27;0.80;;;6.50;99.90;;;;;;6732768;88;20186;-73
2022/02/08 06:33:32;;;;;;;2.92;0.80;;;6.70;99.90;;;;;;6734863;88;21074;-73
2022/02/08 06:43:33;;;;;;;1.15;0.30;;;6.80;99.90;;;;;;6730867;88;20750;-73
2022/02/08 06:53:33;;;;;;;0.43;0.20;;;7.20;99.90;;;;;;6731182;88;20202;-72
2022/02/08 07:03:34;;;;;;;0.50;0.10;;;7.70;99.90;;;;;;6727032;88;21068;-72
2022/02/08 07:13:38;;;;;;;1.62;0.20;;;7.80;99.90;;;;;;6729773;88;20193;-72
2022/02/08 07:23:39;;;;;;;0.68;0.20;;;7.90;99.90;;;;;;6732192;88;20350;-72
2022/02/08 07:33:44;;;;;;;0.60;0.20;;;7.60;99.90;;;;;;6724948;88;20684;-73
2022/02/08 07:43:49;;;;;;;0.77;0.20;;;7.60;99.90;;;;;;6731303;88;20211;-72
2022/02/08 07:53:49;;;;;;;0.80;0.30;;;7.70;99.90;;;;;;6731750;88;20225;-73
2022/02/08 08:03:50;;;;;;;0.82;0.30;;;7.90;99.90;;;;;;6732566;88;20241;-72
2022/02/08 08:24:03;;;;;;;2.17;0.30;;;8.10;99.90;;;;;;6732522;88;20185;-73
2022/02/08 08:34:04;;;;;;;2.35;0.40;;;8.20;99.90;;;;;;6731676;88;20209;-72
2022/02/08 08:44:51;;;;;;;0.65;0.30;;;8.20;99.90;;;;;;6731330;88;20230;-72
2022/02/08 08:54:43;;;;;;;1.40;0.60;;;8.20;99.90;;;;;;6739998;88;20207;-72
2022/02/08 09:04:44;;;;;;;4.87;0.60;;;8.70;99.90;;;;;;6731215;88;20201;-72
2022/02/08 09:35:00;;;;;;;2.65;0.68;;;9.20;99.90;;;;;;6731212;88;20178;-72
2022/02/08 09:45:01;;;;;;;2.53;0.75;;;9.30;99.90;;;;;;6731683;88;20335;-72
2022/02/08 09:55:02;;;;;;;2.37;0.70;;;9.50;99.90;;;;;;6731014;88;20184;-72
2022/02/08 10:05:05;;;;;;;2.90;0.70;;;9.60;99.90;;;;;;6732254;88;20333;-72
2022/02/08 10:25:48;;;;;;;4.20;0.52;;;9.60;99.90;;;;;;6720202;88;20319;-74
2022/02/08 10:46:21;;;;;;;1.35;0.50;;;9.70;99.90;;;;;;6728863;88;20186;-74
2022/02/08 10:56:25;;;;;;;4.87;0.80;;;9.90;99.90;;;;;;6728863;87;20313;-74
2022/02/08 11:16:33;;;;;;;2.67;0.80;;;10.10;99.90;;;;;;6750912;88;20815;-77
2022/02/08 11:26:45;;;;;;;3.25;0.60;;;10.10;99.90;;;;;;6746132;88;20161;-77
2022/02/08 12:07:47;;;;;;;3.17;0.60;;;10.70;99.90;;;;;;6734717;88;20173;-75
2022/02/08 12:29:05;;;;;;;6.32;0.70;;;11.20;99.90;;;;;;6713478;88;20196;-75
2022/02/08 12:49:39;;;;;;;2.47;0.45;;;11.50;99.90;;;;;;6749173;88;20230;-75
2022/02/08 13:20:14;;;;;;;2.87;0.45;;;11.40;99.90;;;;;;6736160;88;20201;-76
2022/02/08 14:21:53;;;;;;;4.65;0.62;;;11.10;99.90;;;;;;6739035;88;20179;-76
2022/02/08 14:32:04;;;;;;;2.67;0.47;;;11.00;99.90;;;;;;6753511;88;20308;-76
2022/02/08 15:13:03;;;;;;;2.65;0.60;;;10.80;99.90;;;;;;6735055;88;20192;-77
2022/02/08 15:23:07;;;;;;;3.55;0.75;;;10.90;99.90;;;;;;6735182;88;20190;-77
2022/02/08 15:33:10;;;;;;;1.80;0.52;;;10.80;99.90;;;;;;6736965;88;20218;-75
2022/02/08 15:43:14;;;;;;;2.60;0.52;;;10.70;99.90;;;;;;6740701;88;20177;-76
2022/02/08 15:53:46;;;;;;;2.08;0.60;;;10.60;99.90;;;;;;6732827;88;20647;-76
2022/02/08 16:14:16;;;;;;;2.75;0.60;;;10.50;99.90;;;;;;6737508;88;20246;-75
2022/02/08 16:24:48;;;;;;;1.33;0.40;;;10.40;99.90;;;;;;6736255;88;20185;-76
2022/02/08 17:05:39;;;;;;;1.10;0.55;;;10.20;99.90;;;;;;6728325;77;20194;-74
2022/02/08 17:16:07;;;;;;;1.83;0.60;;;10.20;99.90;;;;;;6726051;88;20196;-73
2022/02/08 17:56:59;;;;;;;2.35;0.90;;;10.30;99.90;;;;;;6725011;88;20224;-73
2022/02/08 18:07:00;;;;;;;1.45;0.80;;;10.50;99.90;;;;;;6720670;88;20211;-73
2022/02/08 18:17:11;;;;;;;2.35;1.00;;;10.40;99.90;;;;;;6724048;88;20230;-73
2022/02/08 19:18:43;;;;;;;1.37;0.77;;;10.00;99.90;;;;;;6728951;88;20189;-75
2022/02/08 19:28:44;;;;;;;2.67;0.90;;;10.20;99.90;;;;;;6725562;88;20208;-73
2022/02/08 19:38:48;;;;;;;1.75;0.77;;;10.10;99.90;;;;;;6724666;88;20345;-73
2022/02/08 19:48:49;;;;;;;2.35;0.90;;;10.10;99.90;;;;;;6731409;88;20644;-73
2022/02/08 19:58:54;;;;;;;1.65;0.82;;;10.10;99.90;;;;;;6731069;88;20279;-74
2022/02/08 20:08:55;;;;;;;3.17;1.00;;;10.10;99.90;;;;;;6728271;88;20184;-74
2022/02/08 20:18:59;;;;;;;2.95;0.98;;;9.90;99.90;;;;;;6723831;88;20326;-74
2022/02/08 20:29:01;;;;;;;2.37;0.73;;;10.00;99.90;;;;;;6732225;88;20189;-75
2022/02/08 20:39:01;;;;;;;1.35;0.70;;;10.10;99.90;;;;;;6734896;88;20314;-75
2022/02/08 20:49:03;;;;;;;1.67;0.70;;;10.00;99.90;;;;;;6733676;88;20184;-72
2022/02/08 20:59:12;;;;;;;1.10;0.60;;;10.00;99.90;;;;;;6725698;88;20667;-75
2022/02/08 21:09:17;;;;;;;1.77;0.93;;;10.00;99.90;;;;;;6722500;88;20645;-73
2022/02/08 21:19:26;;;;;;;1.73;0.70;;;10.00;99.90;;;;;;6723338;88;20210;-73
2022/02/08 21:29:37;;;;;;;1.80;0.80;;;10.00;99.90;;;;;;6718436;88;20235;-73
2022/02/08 21:50:01;;;;;;;2.70;0.90;;;10.00;99.90;;;;;;6731571;88;20208;-74
2022/02/08 22:00:02;;;;;;;3.70;0.93;;;9.80;99.90;;;;;;6719938;88;20788;-73
2022/02/08 22:10:11;;;;;;;2.03;0.80;;;9.90;99.90;;;;;;6729290;88;20173;-73
2022/02/08 22:40:39;;;;;;;1.55;0.75;;;9.80;99.90;;;;;;6726387;88;20209;-73
2022/02/08 22:50:40;;;;;;;2.00;0.82;;;9.90;99.90;;;;;;6725105;88;20249;-73
2022/02/08 23:00:41;;;;;;;2.45;0.82;;;9.90;99.90;;;;;;6725637;88;20252;-75
2022/02/08 23:10:57;;;;;;;3.10;1.20;;;9.90;99.90;;;;;;6726955;88;20185;-76
2022/02/08 23:41:36;;;;;;;3.67;0.90;;;9.90;99.90;;;;;;6732858;88;20209;-75
2022/02/08 23:51:39;;;;;;;1.12;0.60;;;9.90;99.90;;;;;;6735385;88;20724;-75
